Sprague, Nebraska
Current Conditions -  °F | °C
As of 10:54 PM on Thursday 30 Oct 2014 (Local Time) from KLNK Reporting Station
Overcast Overcast  
Wind Chill:   Ceiling: 2300
Heat Index:   Visibility: 10mi
Dew Point:   Wind: 29mph
Humidity: 68%   Direction: 360°N
Pressure: 30.36"   Gusts: 33mph
Location:  40.63°N, 96.74°W
Report Text: KLNK 310354Z 36025G29KT 10SM OVC023 08/03 A3036 RMK AO2 PK WND 36030/0344 SLP281 T00830028
Loading
Personal Weather Stations






























Interactive Weather Map
Tropical Storm Tracking
New forecast layout! Learn more

10-Day Weather Forecast

Advertisements
Track Severe Weather on mobile